createdAt,value
2022-09-12T00:00:15.874Z,3.97
2022-09-12T00:02:42.823Z,2.08
2022-09-12T00:05:09.895Z,3.55
2022-09-12T00:07:36.822Z,3.25
2022-09-12T00:10:04.236Z,2.80
2022-09-12T00:12:31.226Z,3.28
2022-09-12T00:14:58.240Z,2.97
2022-09-12T00:17:25.164Z,2.15
2022-09-12T00:19:52.305Z,2.33
2022-09-12T00:22:19.185Z,3.55
2022-09-12T00:24:46.083Z,6.40
2022-09-12T00:27:13.412Z,1.35
2022-09-12T00:29:40.302Z,2.97
2022-09-12T00:32:07.187Z,3.65
2022-09-12T00:34:34.110Z,2.05
2022-09-12T00:37:01.015Z,2.13
2022-09-12T00:39:28.139Z,1.85
2022-09-12T00:41:55.095Z,2.22
2022-09-12T00:44:21.937Z,1.33
2022-09-12T00:46:51.268Z,1.98
2022-09-12T00:49:52.465Z,3.90
2022-09-12T00:52:28.363Z,3.17
2022-09-12T00:55:01.514Z,5.93
2022-09-12T00:57:53.842Z,2.92
2022-09-12T01:00:23.406Z,2.10
2022-09-12T01:02:57.307Z,3.97
2022-09-12T01:05:26.133Z,3.35
2022-09-12T01:07:53.254Z,3.67
2022-09-12T01:10:20.427Z,1.23
2022-09-12T01:12:48.826Z,3.17
2022-09-12T01:15:15.800Z,3.03
2022-09-12T01:17:51.746Z,5.05
2022-09-12T01:20:56.099Z,1.13
2022-09-12T01:23:41.454Z,2.88
2022-09-12T01:26:30.585Z,3.17
2022-09-12T01:29:14.362Z,5.15
2022-09-12T01:32:10.740Z,4.50
2022-09-12T01:34:52.424Z,4.65
2022-09-12T01:37:49.661Z,1.33
2022-09-12T01:40:25.380Z,1.90
2022-09-12T01:42:53.027Z,4.78
2022-09-12T01:45:43.686Z,5.57
2022-09-12T01:48:24.701Z,1.42
2022-09-12T01:51:13.893Z,4.30
2022-09-12T01:53:51.129Z,1.95
2022-09-12T01:56:29.812Z,3.15
2022-09-12T01:59:01.378Z,1.40
2022-09-12T02:01:32.008Z,2.42
2022-09-12T02:04:09.422Z,3.53
2022-09-12T02:06:44.214Z,2.88
2022-09-12T02:09:18.426Z,3.95
2022-09-12T02:11:46.448Z,2.60
2022-09-12T02:14:21.764Z,3.10
2022-09-12T02:16:54.608Z,7.05
2022-09-12T02:22:02.785Z,2.97
2022-09-12T02:24:34.030Z,4.03
2022-09-12T02:27:06.153Z,6.78
2022-09-12T02:29:33.126Z,7.15
2022-09-12T02:32:06.049Z,5.75
2022-09-12T02:37:19.257Z,8.18
2022-09-12T02:42:14.220Z,8.10
2022-09-12T02:44:41.782Z,6.60
2022-09-12T02:47:18.572Z,7.50
2022-09-12T02:49:46.617Z,7.18
2022-09-12T02:52:13.491Z,7.15
2022-09-12T02:54:41.192Z,4.43
2022-09-12T02:57:23.112Z,5.68
2022-09-12T02:59:53.273Z,3.23
2022-09-12T03:02:48.767Z,3.17
2022-09-12T03:05:47.319Z,2.38
2022-09-12T03:08:33.040Z,2.20
2022-09-12T03:11:34.333Z,3.00
2022-09-12T03:14:27.871Z,2.47
2022-09-12T03:17:07.400Z,2.50
2022-09-12T03:19:48.669Z,7.13
2022-09-12T03:22:21.522Z,4.40
2022-09-12T03:27:21.097Z,4.65
2022-09-12T03:29:48.959Z,2.38
2022-09-12T03:32:15.995Z,1.45
2022-09-12T03:34:42.917Z,1.58
2022-09-12T03:37:09.982Z,1.17
2022-09-12T03:39:36.868Z,5.60
2022-09-12T03:42:03.886Z,2.42
2022-09-12T03:44:30.797Z,4.53
2022-09-12T03:46:57.706Z,2.03
2022-09-12T03:49:24.682Z,2.95
2022-09-12T03:51:51.573Z,2.88
2022-09-12T03:54:18.555Z,2.17
2022-09-12T03:56:45.489Z,1.30
2022-09-12T03:59:12.344Z,3.85
2022-09-12T04:01:39.305Z,2.25
2022-09-12T04:04:06.219Z,2.47
2022-09-12T04:06:33.102Z,2.75
2022-09-12T04:09:00.051Z,3.08
2022-09-12T04:11:26.965Z,5.07
2022-09-12T04:13:54.277Z,6.35
2022-09-12T04:16:21.439Z,3.63
2022-09-12T04:18:48.538Z,3.47
2022-09-12T04:21:18.786Z,5.70
2022-09-12T04:23:46.194Z,3.58
2022-09-12T04:26:13.964Z,3.78
2022-09-12T04:28:41.965Z,7.75
2022-09-12T04:31:15.792Z,9.18
2022-09-12T04:33:42.841Z,18.65
2022-09-12T04:36:12.577Z,16.73
2022-09-12T04:38:39.557Z,11.90
2022-09-12T04:41:18.815Z,6.38
2022-09-12T04:43:46.760Z,12.80
2022-09-12T04:46:15.428Z,13.45
2022-09-12T04:48:43.439Z,11.63
2022-09-12T04:51:14.236Z,21.15
2022-09-12T04:53:42.381Z,14.40
2022-09-12T04:56:11.546Z,5.03
2022-09-12T04:58:39.083Z,5.13
2022-09-12T05:01:11.784Z,3.75
2022-09-12T05:03:39.898Z,11.30
2022-09-12T05:06:09.818Z,8.20
2022-09-12T05:08:37.002Z,13.27
2022-09-12T05:11:12.188Z,13.98
2022-09-12T05:13:40.312Z,6.72
2022-09-12T05:16:10.013Z,8.25
2022-09-12T05:18:37.556Z,12.23
2022-09-12T05:21:07.247Z,15.85
2022-09-12T05:23:34.886Z,12.68
2022-09-12T05:26:02.753Z,9.60
2022-09-12T05:28:37.855Z,7.35
2022-09-12T05:31:06.242Z,4.70
2022-09-12T05:33:34.953Z,4.95
2022-09-12T05:36:03.352Z,8.77
2022-09-12T05:38:30.293Z,3.75
2022-09-12T05:41:18.219Z,3.83
2022-09-12T05:43:47.711Z,3.88
2022-09-12T05:46:17.323Z,9.45
2022-09-12T05:48:46.153Z,14.13
2022-09-12T05:51:36.873Z,14.20
2022-09-12T05:54:04.811Z,8.75
2022-09-12T05:56:34.771Z,8.75
2022-09-12T05:59:04.690Z,5.90
2022-09-12T06:01:33.490Z,4.22
2022-09-12T06:04:02.340Z,6.93
2022-09-12T06:06:30.915Z,6.65
2022-09-12T06:09:02.000Z,6.78
2022-09-12T06:11:31.193Z,7.40
2022-09-12T06:13:59.253Z,6.90
2022-09-12T06:16:31.728Z,4.28
2022-09-12T06:19:01.069Z,3.03
2022-09-12T06:21:29.049Z,3.22
2022-09-12T06:23:56.492Z,4.68
2022-09-12T06:26:26.364Z,6.68
2022-09-12T06:28:55.237Z,6.78
2022-09-12T06:31:31.862Z,3.83
2022-09-12T06:34:01.839Z,7.45
2022-09-12T06:36:31.860Z,14.82
2022-09-12T06:39:05.376Z,6.07
2022-09-12T06:41:33.380Z,7.25
2022-09-12T06:44:01.330Z,11.48
2022-09-12T06:46:28.903Z,8.57
2022-09-12T06:49:00.679Z,5.15
2022-09-12T06:51:29.465Z,10.53
2022-09-12T06:53:57.539Z,5.30
2022-09-12T06:56:26.862Z,12.15
2022-09-12T06:58:56.147Z,4.05
2022-09-12T07:01:31.403Z,12.40
2022-09-12T07:04:00.789Z,4.95
2022-09-12T07:06:32.114Z,6.15
2022-09-12T07:09:00.341Z,4.55
2022-09-12T07:11:30.740Z,2.55
2022-09-12T07:14:00.105Z,3.75
2022-09-12T07:16:27.354Z,5.15
2022-09-12T07:18:59.449Z,4.45
2022-09-12T07:21:27.257Z,1.90
2022-09-12T07:23:57.109Z,6.30
2022-09-12T07:26:29.083Z,3.33
2022-09-12T07:29:12.839Z,4.57
2022-09-12T07:31:45.155Z,3.75
2022-09-12T07:34:12.231Z,3.22
2022-09-12T07:36:39.375Z,2.47
2022-09-12T07:39:06.357Z,2.05
2022-09-12T07:41:36.290Z,2.63
2022-09-12T07:44:06.717Z,2.65
2022-09-12T07:46:34.227Z,1.60
2022-09-12T07:49:02.312Z,1.98
2022-09-12T07:51:30.474Z,2.17
2022-09-12T07:53:58.184Z,2.65
2022-09-12T07:56:30.166Z,3.15
2022-09-12T07:58:59.116Z,4.93
2022-09-12T08:01:26.771Z,5.95
2022-09-12T08:03:56.997Z,2.90
2022-09-12T08:06:25.272Z,3.45
2022-09-12T08:08:54.622Z,3.65
2022-09-12T08:11:23.796Z,3.42
2022-09-12T08:13:55.324Z,2.72
2022-09-12T08:16:25.281Z,4.80
2022-09-12T08:18:52.242Z,2.15
2022-09-12T08:21:27.028Z,4.28
2022-09-12T08:23:56.507Z,2.08
2022-09-12T08:26:24.841Z,6.35
2022-09-12T08:28:52.136Z,3.03
2022-09-12T08:31:20.714Z,6.78
2022-09-12T08:33:48.144Z,4.00
2022-09-12T08:36:24.540Z,4.13
2022-09-12T08:38:59.307Z,4.40
2022-09-12T08:41:35.336Z,2.50
2022-09-12T08:44:40.004Z,2.28
2022-09-12T08:47:25.180Z,2.38
2022-09-12T08:50:02.834Z,3.63
2022-09-12T08:52:53.173Z,3.17
2022-09-12T08:55:44.805Z,3.33
2022-09-12T08:58:23.947Z,4.65
2022-09-12T09:01:13.081Z,3.10
2022-09-12T09:04:02.122Z,3.22
2022-09-12T09:06:55.190Z,4.28
2022-09-12T09:09:48.339Z,3.15
2022-09-12T09:12:36.872Z,4.20
2022-09-12T09:15:25.135Z,6.68
2022-09-12T09:18:02.151Z,7.70
2022-09-12T09:20:32.030Z,4.15
2022-09-12T09:23:20.924Z,4.22
2022-09-12T09:26:10.603Z,3.38
2022-09-12T09:28:54.517Z,3.45
2022-09-12T09:31:27.287Z,3.92
2022-09-12T09:33:57.814Z,2.50
2022-09-12T09:37:13.906Z,2.88
2022-09-12T09:40:15.931Z,3.45
2022-09-12T09:42:42.933Z,3.10
2022-09-12T09:45:21.054Z,4.43
2022-09-12T09:48:08.349Z,3.05
2022-09-12T09:50:36.104Z,2.63
2022-09-12T09:53:04.438Z,4.20
2022-09-12T09:55:38.599Z,3.17
2022-09-12T09:58:05.749Z,3.30
2022-09-12T10:00:37.882Z,4.90
2022-09-12T10:03:13.809Z,2.42
2022-09-12T10:06:13.071Z,2.90
2022-09-12T10:08:40.675Z,5.18
2022-09-12T10:11:16.958Z,3.42
2022-09-12T10:13:57.135Z,2.25
2022-09-12T10:16:29.024Z,3.78
2022-09-12T10:19:01.779Z,2.08
2022-09-12T10:21:41.325Z,4.00
2022-09-12T10:24:28.394Z,3.25
2022-09-12T10:27:05.834Z,2.25
2022-09-12T10:29:39.595Z,3.42
2022-09-12T10:32:09.276Z,2.05
2022-09-12T10:34:42.735Z,1.85
2022-09-12T10:37:34.433Z,2.60
2022-09-12T10:40:05.837Z,1.85
2022-09-12T10:42:44.147Z,2.47
2022-09-12T10:45:37.974Z,2.53
2022-09-12T10:48:30.377Z,4.03
2022-09-12T10:50:59.326Z,3.38
2022-09-12T10:53:34.127Z,6.03
2022-09-12T10:56:13.601Z,2.25
2022-09-12T10:59:07.498Z,2.22
2022-09-12T11:01:47.318Z,1.65
2022-09-12T11:04:56.203Z,1.55
2022-09-12T11:07:51.070Z,1.65
2022-09-12T11:10:45.700Z,1.98
2022-09-12T11:13:27.575Z,3.13
2022-09-12T11:16:13.271Z,2.45
2022-09-12T11:19:05.083Z,2.25
2022-09-12T11:21:41.482Z,2.77
2022-09-12T11:24:17.516Z,5.13
2022-09-12T11:27:20.490Z,3.70
2022-09-12T11:29:59.749Z,2.53
2022-09-12T11:32:46.163Z,1.90
2022-09-12T11:35:17.585Z,2.47
2022-09-12T11:38:17.512Z,2.88
2022-09-12T11:40:50.109Z,3.40
2022-09-12T11:43:31.420Z,2.25
2022-09-12T11:46:21.955Z,1.85
2022-09-12T11:48:57.529Z,2.65
2022-09-12T11:51:29.021Z,2.83
2022-09-12T11:54:14.059Z,2.97
2022-09-12T11:56:46.141Z,4.00
2022-09-12T11:59:51.680Z,2.10
2022-09-12T12:02:40.006Z,1.50
2022-09-12T12:05:20.598Z,2.78
2022-09-12T12:07:53.919Z,1.95
2022-09-12T12:10:26.725Z,1.70
2022-09-12T12:12:56.262Z,3.28
2022-09-12T12:15:25.837Z,1.98
2022-09-12T12:18:20.429Z,2.30
2022-09-12T12:20:48.241Z,1.77
2022-09-12T12:23:34.437Z,3.97
2022-09-12T12:26:04.289Z,1.80
2022-09-12T12:28:59.241Z,4.40
2022-09-12T12:31:26.544Z,1.80
2022-09-12T12:34:00.700Z,2.38
2022-09-12T12:36:41.447Z,2.70
2022-09-12T12:39:33.095Z,2.95
2022-09-12T12:42:00.764Z,5.00
2022-09-12T12:44:45.833Z,1.40
2022-09-12T12:47:25.783Z,2.15
2022-09-12T12:50:16.028Z,4.95
2022-09-12T12:52:50.628Z,2.95
2022-09-12T12:55:38.963Z,2.28
2022-09-12T12:58:08.023Z,1.63
2022-09-12T13:00:39.783Z,4.97
2022-09-12T13:03:06.984Z,2.50
2022-09-12T13:05:57.651Z,2.55
2022-09-12T13:08:28.859Z,3.22
2022-09-12T13:11:03.185Z,4.72
2022-09-12T13:13:41.204Z,2.88
2022-09-12T13:16:11.112Z,3.35
2022-09-12T13:18:47.678Z,4.20
2022-09-12T13:21:18.580Z,3.28
2022-09-12T13:24:00.741Z,1.50
2022-09-12T13:26:27.860Z,3.28
2022-09-12T13:29:10.251Z,1.50
2022-09-12T13:31:37.912Z,3.67
2022-09-12T13:34:08.437Z,2.22
2022-09-12T13:37:05.146Z,4.18
2022-09-12T13:39:42.743Z,1.52
2022-09-12T13:42:32.365Z,3.30
2022-09-12T13:45:04.893Z,2.38
2022-09-12T13:47:44.576Z,2.55
2022-09-12T13:50:31.933Z,2.38
2022-09-12T13:53:03.933Z,2.05
2022-09-12T13:55:42.607Z,2.45
2022-09-12T13:58:23.062Z,1.40
2022-09-12T14:01:10.043Z,3.33
2022-09-12T14:04:00.952Z,3.50
2022-09-12T14:06:28.515Z,1.88
2022-09-12T14:09:01.580Z,1.85
2022-09-12T14:11:30.802Z,5.63
2022-09-12T14:13:58.378Z,1.65
2022-09-12T14:16:29.162Z,1.92
2022-09-12T14:18:57.333Z,2.40
2022-09-12T14:21:35.017Z,2.08
2022-09-12T14:24:05.153Z,1.40
2022-09-12T14:26:37.650Z,1.85
2022-09-12T14:29:08.942Z,3.78
2022-09-12T14:31:38.549Z,1.05
2022-09-12T14:34:16.315Z,3.17
2022-09-12T14:36:47.846Z,1.73
2022-09-12T14:39:41.552Z,1.53
2022-09-12T14:42:21.344Z,1.38
2022-09-12T14:45:01.907Z,9.23
2022-09-12T14:47:39.506Z,4.28
2022-09-12T14:50:22.027Z,3.25
2022-09-12T14:55:32.230Z,3.30
2022-09-12T14:58:14.772Z,2.58
2022-09-12T15:03:30.355Z,2.42
2022-09-12T15:05:58.367Z,1.50
2022-09-12T15:08:25.663Z,5.13
2022-09-12T15:10:52.835Z,2.22
2022-09-12T15:13:23.162Z,2.92
2022-09-12T15:15:55.935Z,1.60
2022-09-12T15:18:27.825Z,2.22
2022-09-12T15:21:11.975Z,2.35
2022-09-12T15:23:47.160Z,2.13
2022-09-12T15:26:18.489Z,1.55
2022-09-12T15:28:45.756Z,5.07
2022-09-12T15:31:30.525Z,4.13
2022-09-12T15:33:59.294Z,2.80
2022-09-12T15:36:26.717Z,2.35
2022-09-12T15:38:53.843Z,2.83
2022-09-12T15:41:23.947Z,2.80
2022-09-12T15:43:51.361Z,1.80
2022-09-12T15:46:20.388Z,2.25
2022-09-12T15:48:47.414Z,1.75
2022-09-12T15:51:22.215Z,2.03
2022-09-12T15:53:50.969Z,2.17
2022-09-12T15:56:20.310Z,1.95
2022-09-12T15:58:58.343Z,3.03
2022-09-12T16:01:27.904Z,6.00
2022-09-12T16:03:55.115Z,3.30
2022-09-12T16:06:22.606Z,5.03
2022-09-12T16:08:49.722Z,4.05
2022-09-12T16:11:23.073Z,2.13
2022-09-12T16:13:52.065Z,3.78
2022-09-12T16:16:19.054Z,3.00
2022-09-12T16:18:46.135Z,2.78
2022-09-12T16:21:15.568Z,4.10
2022-09-12T16:23:45.967Z,3.78
2022-09-12T16:26:13.495Z,3.45
2022-09-12T16:28:40.831Z,3.97
2022-09-12T16:31:10.853Z,4.78
2022-09-12T16:33:39.182Z,4.10
2022-09-12T16:36:11.545Z,11.20
2022-09-12T16:38:46.714Z,6.03
2022-09-12T16:41:15.978Z,10.68
2022-09-12T16:43:43.577Z,6.82
2022-09-12T16:46:22.411Z,8.52
2022-09-12T16:48:52.612Z,5.50
2022-09-12T16:51:30.850Z,6.15
2022-09-12T16:53:57.980Z,4.95
2022-09-12T16:56:25.559Z,5.35
2022-09-12T16:58:52.786Z,4.65
2022-09-12T17:01:25.551Z,5.93
2022-09-12T17:03:57.783Z,4.65
2022-09-12T17:06:26.114Z,7.85
2022-09-12T17:08:54.849Z,10.55
2022-09-12T17:11:31.039Z,5.18
2022-09-12T17:14:07.324Z,5.28
2022-09-12T17:16:37.472Z,9.15
2022-09-12T17:19:05.590Z,9.20
2022-09-12T17:21:33.147Z,7.97
2022-09-12T17:24:00.172Z,5.55
2022-09-12T17:26:27.483Z,10.38
2022-09-12T17:28:54.403Z,14.98
2022-09-12T17:31:23.117Z,26.25
2022-09-12T17:33:50.128Z,11.07
2022-09-12T17:36:18.222Z,29.17
2022-09-12T17:38:46.531Z,9.88
2022-09-12T17:41:19.145Z,10.15
2022-09-12T17:46:20.802Z,11.55
2022-09-12T17:48:56.486Z,7.38
2022-09-12T17:51:25.974Z,12.13
2022-09-12T17:53:59.282Z,11.30
2022-09-12T17:56:31.807Z,8.23
2022-09-12T17:58:59.691Z,7.45
2022-09-12T18:01:46.560Z,16.02
2022-09-12T18:04:13.807Z,20.00
2022-09-12T18:06:47.862Z,9.88
2022-09-12T18:09:17.810Z,13.32
2022-09-12T18:11:44.940Z,18.20
2022-09-12T18:14:14.171Z,22.33
2022-09-12T18:16:41.792Z,15.20
2022-09-12T18:19:08.899Z,20.40
2022-09-12T18:22:24.408Z,12.63
2022-09-12T18:24:51.486Z,12.25
2022-09-12T18:27:18.355Z,12.13
2022-09-12T18:29:58.934Z,8.10
2022-09-12T18:32:32.139Z,7.60
2022-09-12T18:34:59.044Z,8.57
2022-09-12T18:37:33.152Z,11.93
2022-09-12T18:40:00.488Z,9.32
2022-09-12T18:42:27.580Z,11.23
2022-09-12T18:45:10.969Z,10.18
2022-09-12T18:47:38.024Z,11.52
2022-09-12T18:50:05.620Z,11.25
2022-09-12T18:52:32.487Z,8.15
2022-09-12T18:54:59.444Z,11.90
2022-09-12T18:57:26.399Z,11.35
2022-09-12T18:59:54.494Z,12.75
2022-09-12T19:02:21.422Z,14.10
2022-09-12T19:04:48.505Z,9.90
2022-09-12T19:07:17.178Z,9.70
2022-09-12T19:09:44.717Z,10.82
2022-09-12T19:12:11.726Z,10.15
2022-09-12T19:14:38.731Z,8.70
2022-09-12T19:17:06.076Z,9.82
2022-09-12T19:19:33.029Z,9.70
2022-09-12T19:21:59.956Z,12.73
2022-09-12T19:24:27.148Z,8.75
2022-09-12T19:26:54.045Z,7.32
2022-09-12T19:29:20.977Z,9.73
2022-09-12T19:31:47.913Z,8.10
2022-09-12T19:34:15.498Z,5.78
2022-09-12T19:36:47.148Z,11.55
2022-09-12T19:39:19.895Z,7.53
2022-09-12T19:41:47.558Z,6.95
2022-09-12T19:44:14.856Z,6.47
2022-09-12T19:46:42.067Z,7.28
2022-09-12T19:49:11.382Z,12.07
2022-09-12T19:51:38.264Z,8.00
2022-09-12T19:54:06.459Z,7.97
2022-09-12T19:56:33.361Z,8.32
2022-09-12T19:59:00.334Z,8.25
2022-09-12T20:01:30.741Z,7.82
2022-09-12T20:03:58.973Z,11.55
2022-09-12T20:06:27.106Z,5.93
2022-09-12T20:08:55.035Z,9.38
2022-09-12T20:11:23.720Z,10.52
2022-09-12T20:13:51.310Z,7.65
2022-09-12T20:16:29.172Z,8.55
2022-09-12T20:18:58.976Z,14.20
2022-09-12T20:21:36.913Z,8.07
2022-09-12T20:24:12.083Z,10.20
2022-09-12T20:26:40.010Z,7.65
2022-09-12T20:29:08.450Z,8.40
2022-09-12T20:31:36.976Z,9.02
2022-09-12T20:34:04.720Z,7.43
2022-09-12T20:36:32.063Z,7.80
2022-09-12T20:39:01.375Z,6.32
2022-09-12T20:41:31.082Z,6.63
2022-09-12T20:43:58.539Z,7.13
2022-09-12T20:46:27.214Z,6.55
2022-09-12T20:48:54.716Z,9.52
2022-09-12T20:51:22.724Z,5.68
2022-09-12T20:53:54.334Z,7.95
2022-09-12T20:56:22.135Z,6.55
2022-09-12T20:58:49.183Z,7.75
2022-09-12T21:01:16.865Z,8.65
2022-09-12T21:03:44.806Z,8.30
2022-09-12T21:06:14.372Z,9.50
2022-09-12T21:08:41.333Z,9.02
2022-09-12T21:11:08.558Z,8.30
2022-09-12T21:13:36.575Z,7.63
2022-09-12T21:16:05.000Z,6.72
2022-09-12T21:18:33.381Z,7.15
2022-09-12T21:21:00.588Z,7.22
2022-09-12T21:23:28.297Z,6.00
2022-09-12T21:25:55.407Z,6.25
2022-09-12T21:28:22.381Z,5.40
2022-09-12T21:30:50.110Z,4.68
2022-09-12T21:33:18.339Z,5.80
2022-09-12T21:35:45.922Z,5.13
2022-09-12T21:38:13.061Z,5.63
2022-09-12T21:40:39.977Z,4.88
2022-09-12T21:43:12.520Z,6.43
2022-09-12T21:45:40.555Z,5.70
2022-09-12T21:48:08.119Z,4.18
2022-09-12T21:50:35.085Z,6.25
2022-09-12T21:53:01.998Z,5.88
2022-09-12T21:55:29.290Z,5.30
2022-09-12T21:57:56.562Z,5.18
2022-09-12T22:00:24.051Z,6.13
2022-09-12T22:02:51.103Z,6.45
2022-09-12T22:05:21.423Z,5.53
2022-09-12T22:07:48.394Z,7.15
2022-09-12T22:10:15.351Z,4.05
2022-09-12T22:12:46.047Z,4.53
2022-09-12T22:15:38.952Z,3.50
2022-09-12T22:18:00.855Z,9.82
2022-09-12T22:20:27.776Z,4.80
2022-09-12T22:23:13.250Z,7.22
2022-09-12T22:25:40.381Z,6.10
2022-09-12T22:28:07.309Z,7.03
2022-09-12T22:30:34.231Z,5.70
2022-09-12T22:33:01.290Z,5.55
2022-09-12T22:35:28.220Z,6.63
2022-09-12T22:37:55.059Z,5.68
2022-09-12T22:40:22.145Z,6.63
2022-09-12T22:42:52.387Z,7.93
2022-09-12T22:45:19.965Z,5.03
2022-09-12T22:47:46.993Z,7.82
2022-09-12T22:50:14.422Z,5.50
2022-09-12T22:52:41.777Z,4.75
2022-09-12T22:55:09.825Z,3.58
2022-09-12T22:57:37.490Z,4.47
2022-09-12T23:00:08.062Z,4.28
2022-09-12T23:02:35.022Z,4.43
2022-09-12T23:05:02.834Z,4.60
2022-09-12T23:07:29.758Z,4.43
2022-09-12T23:09:57.000Z,5.20
2022-09-12T23:12:23.978Z,4.22
2022-09-12T23:14:50.869Z,4.63
2022-09-12T23:17:17.895Z,4.28
2022-09-12T23:19:44.768Z,6.80
2022-09-12T23:22:11.676Z,5.97
2022-09-12T23:24:38.896Z,6.63
2022-09-12T23:27:06.164Z,6.95
2022-09-12T23:29:35.489Z,5.68
2022-09-12T23:32:03.863Z,4.60
2022-09-12T23:34:31.057Z,3.80
2022-09-12T23:36:58.029Z,5.63
2022-09-12T23:39:25.049Z,6.32
2022-09-12T23:41:52.269Z,4.40
2022-09-12T23:44:19.236Z,7.28
2022-09-12T23:46:46.207Z,5.30
2022-09-12T23:49:13.251Z,5.60
2022-09-12T23:51:40.236Z,4.20
2022-09-12T23:54:07.171Z,5.05
2022-09-12T23:56:34.232Z,6.65
2022-09-12T23:59:01.224Z,5.25
